sensor_id;sensor_type;location;lat;lon;timestamp;P1;durP1;ratioP1;P2;durP2;ratioP2
46507;SDS011;32223;53.654;10.014;2023-09-12T00:01:05;30.98;;;22.08;;
46507;SDS011;32223;53.654;10.014;2023-09-12T00:03:31;30.38;;;21.02;;
46507;SDS011;32223;53.654;10.014;2023-09-12T00:05:58;31.52;;;20.70;;
46507;SDS011;32223;53.654;10.014;2023-09-12T00:08:25;37.58;;;26.10;;
46507;SDS011;32223;53.654;10.014;2023-09-12T00:13:50;38.75;;;24.90;;
46507;SDS011;32223;53.654;10.014;2023-09-12T00:16:16;34.38;;;25.67;;
46507;SDS011;32223;53.654;10.014;2023-09-12T00:18:41;37.60;;;26.17;;
46507;SDS011;32223;53.654;10.014;2023-09-12T00:21:07;41.47;;;29.35;;
46507;SDS011;32223;53.654;10.014;2023-09-12T00:23:33;40.55;;;28.88;;
46507;SDS011;32223;53.654;10.014;2023-09-12T00:25:59;44.35;;;32.83;;
46507;SDS011;32223;53.654;10.014;2023-09-12T00:28:25;32.80;;;24.15;;
46507;SDS011;32223;53.654;10.014;2023-09-12T00:30:51;38.33;;;26.65;;
46507;SDS011;32223;53.654;10.014;2023-09-12T00:33:17;41.97;;;29.02;;
46507;SDS011;32223;53.654;10.014;2023-09-12T00:35:43;43.60;;;29.73;;
46507;SDS011;32223;53.654;10.014;2023-09-12T00:38:09;43.63;;;30.70;;
46507;SDS011;32223;53.654;10.014;2023-09-12T00:40:35;38.08;;;25.35;;
46507;SDS011;32223;53.654;10.014;2023-09-12T00:43:00;37.47;;;24.08;;
46507;SDS011;32223;53.654;10.014;2023-09-12T00:45:26;39.42;;;28.42;;
46507;SDS011;32223;53.654;10.014;2023-09-12T00:47:52;32.47;;;22.80;;
46507;SDS011;32223;53.654;10.014;2023-09-12T00:50:18;35.95;;;26.63;;
46507;SDS011;32223;53.654;10.014;2023-09-12T00:52:45;39.78;;;25.77;;
46507;SDS011;32223;53.654;10.014;2023-09-12T00:55:12;43.05;;;27.88;;
46507;SDS011;32223;53.654;10.014;2023-09-12T00:57:38;33.28;;;23.42;;
46507;SDS011;32223;53.654;10.014;2023-09-12T01:00:05;35.17;;;22.98;;
46507;SDS011;32223;53.654;10.014;2023-09-12T01:02:39;33.08;;;21.17;;
46507;SDS011;32223;53.654;10.014;2023-09-12T01:05:06;28.90;;;21.48;;
46507;SDS011;32223;53.654;10.014;2023-09-12T01:07:33;32.97;;;21.88;;
46507;SDS011;32223;53.654;10.014;2023-09-12T01:10:00;28.30;;;18.83;;
46507;SDS011;32223;53.654;10.014;2023-09-12T01:12:27;30.40;;;22.40;;
46507;SDS011;32223;53.654;10.014;2023-09-12T01:14:54;26.77;;;18.08;;
46507;SDS011;32223;53.654;10.014;2023-09-12T01:17:20;29.33;;;20.10;;
46507;SDS011;32223;53.654;10.014;2023-09-12T01:19:46;31.42;;;19.42;;
46507;SDS011;32223;53.654;10.014;2023-09-12T01:28:02;26.90;;;19.40;;
46507;SDS011;32223;53.654;10.014;2023-09-12T01:30:31;26.40;;;18.23;;
46507;SDS011;32223;53.654;10.014;2023-09-12T01:32:59;28.40;;;18.90;;
46507;SDS011;32223;53.654;10.014;2023-09-12T01:35:25;29.85;;;18.92;;
46507;SDS011;32223;53.654;10.014;2023-09-12T01:37:50;24.63;;;18.08;;
46507;SDS011;32223;53.654;10.014;2023-09-12T01:40:16;21.98;;;17.52;;
46507;SDS011;32223;53.654;10.014;2023-09-12T01:42:46;29.77;;;19.15;;
46507;SDS011;32223;53.654;10.014;2023-09-12T01:45:14;25.40;;;17.92;;
46507;SDS011;32223;53.654;10.014;2023-09-12T01:47:42;30.90;;;20.17;;
46507;SDS011;32223;53.654;10.014;2023-09-12T01:50:09;26.88;;;19.75;;
46507;SDS011;32223;53.654;10.014;2023-09-12T01:52:38;24.33;;;18.95;;
46507;SDS011;32223;53.654;10.014;2023-09-12T01:55:05;20.40;;;15.25;;
46507;SDS011;32223;53.654;10.014;2023-09-12T01:57:34;25.02;;;17.50;;
46507;SDS011;32223;53.654;10.014;2023-09-12T02:00:00;26.65;;;17.75;;
46507;SDS011;32223;53.654;10.014;2023-09-12T02:02:26;23.95;;;16.65;;
46507;SDS011;32223;53.654;10.014;2023-09-12T02:05:05;21.83;;;14.57;;
46507;SDS011;32223;53.654;10.014;2023-09-12T02:07:48;17.48;;;13.68;;
46507;SDS011;32223;53.654;10.014;2023-09-12T02:10:13;25.95;;;16.15;;
46507;SDS011;32223;53.654;10.014;2023-09-12T02:12:39;24.67;;;16.48;;
46507;SDS011;32223;53.654;10.014;2023-09-12T02:15:06;22.90;;;14.55;;
46507;SDS011;32223;53.654;10.014;2023-09-12T02:17:32;26.88;;;17.98;;
46507;SDS011;32223;53.654;10.014;2023-09-12T02:19:57;25.88;;;19.30;;
46507;SDS011;32223;53.654;10.014;2023-09-12T02:22:23;29.33;;;19.15;;
46507;SDS011;32223;53.654;10.014;2023-09-12T02:24:49;23.23;;;14.98;;
46507;SDS011;32223;53.654;10.014;2023-09-12T02:27:15;27.80;;;19.17;;
46507;SDS011;32223;53.654;10.014;2023-09-12T02:29:41;21.50;;;14.93;;
46507;SDS011;32223;53.654;10.014;2023-09-12T02:32:07;28.50;;;19.83;;
46507;SDS011;32223;53.654;10.014;2023-09-12T02:34:33;21.05;;;15.70;;
46507;SDS011;32223;53.654;10.014;2023-09-12T02:36:58;28.67;;;20.60;;
46507;SDS011;32223;53.654;10.014;2023-09-12T02:39:24;28.45;;;18.92;;
46507;SDS011;32223;53.654;10.014;2023-09-12T02:41:50;31.33;;;20.05;;
46507;SDS011;32223;53.654;10.014;2023-09-12T02:44:15;29.48;;;18.40;;
46507;SDS011;32223;53.654;10.014;2023-09-12T02:46:41;25.77;;;18.23;;
46507;SDS011;32223;53.654;10.014;2023-09-12T02:49:07;27.65;;;19.08;;
46507;SDS011;32223;53.654;10.014;2023-09-12T02:51:33;30.42;;;19.08;;
46507;SDS011;32223;53.654;10.014;2023-09-12T02:53:58;31.77;;;20.48;;
46507;SDS011;32223;53.654;10.014;2023-09-12T02:56:24;27.05;;;18.25;;
46507;SDS011;32223;53.654;10.014;2023-09-12T02:58:50;31.17;;;21.25;;
46507;SDS011;32223;53.654;10.014;2023-09-12T03:01:16;34.53;;;20.70;;
46507;SDS011;32223;53.654;10.014;2023-09-12T03:03:43;28.70;;;20.17;;
46507;SDS011;32223;53.654;10.014;2023-09-12T03:06:11;28.90;;;20.25;;
46507;SDS011;32223;53.654;10.014;2023-09-12T03:08:37;33.75;;;21.38;;
46507;SDS011;32223;53.654;10.014;2023-09-12T03:11:03;28.50;;;19.55;;
46507;SDS011;32223;53.654;10.014;2023-09-12T03:13:29;32.20;;;20.40;;
46507;SDS011;32223;53.654;10.014;2023-09-12T03:15:55;31.10;;;20.25;;
46507;SDS011;32223;53.654;10.014;2023-09-12T03:18:21;32.70;;;20.05;;
46507;SDS011;32223;53.654;10.014;2023-09-12T03:20:46;28.92;;;18.80;;
46507;SDS011;32223;53.654;10.014;2023-09-12T03:23:12;28.17;;;18.02;;
46507;SDS011;32223;53.654;10.014;2023-09-12T03:25:38;30.02;;;20.00;;
46507;SDS011;32223;53.654;10.014;2023-09-12T03:28:04;29.05;;;19.52;;
46507;SDS011;32223;53.654;10.014;2023-09-12T03:30:32;35.50;;;22.30;;
46507;SDS011;32223;53.654;10.014;2023-09-12T03:32:59;30.13;;;20.05;;
46507;SDS011;32223;53.654;10.014;2023-09-12T03:35:25;30.58;;;21.17;;
46507;SDS011;32223;53.654;10.014;2023-09-12T03:37:51;29.63;;;19.98;;
46507;SDS011;32223;53.654;10.014;2023-09-12T03:40:16;33.22;;;21.52;;
46507;SDS011;32223;53.654;10.014;2023-09-12T03:42:42;33.30;;;20.42;;
46507;SDS011;32223;53.654;10.014;2023-09-12T03:45:08;36.47;;;21.90;;
46507;SDS011;32223;53.654;10.014;2023-09-12T03:47:34;31.27;;;22.75;;
46507;SDS011;32223;53.654;10.014;2023-09-12T03:49:59;36.47;;;22.25;;
46507;SDS011;32223;53.654;10.014;2023-09-12T03:52:25;37.42;;;21.95;;
46507;SDS011;32223;53.654;10.014;2023-09-12T03:54:51;35.35;;;24.40;;
46507;SDS011;32223;53.654;10.014;2023-09-12T03:57:16;36.97;;;22.35;;
46507;SDS011;32223;53.654;10.014;2023-09-12T03:59:42;36.65;;;23.80;;
46507;SDS011;32223;53.654;10.014;2023-09-12T04:02:08;41.63;;;23.58;;
46507;SDS011;32223;53.654;10.014;2023-09-12T04:04:34;39.42;;;24.33;;
46507;SDS011;32223;53.654;10.014;2023-09-12T04:06:59;36.65;;;23.58;;
46507;SDS011;32223;53.654;10.014;2023-09-12T04:09:26;39.83;;;24.50;;
46507;SDS011;32223;53.654;10.014;2023-09-12T04:11:52;37.00;;;24.15;;
46507;SDS011;32223;53.654;10.014;2023-09-12T04:14:18;38.50;;;25.13;;
46507;SDS011;32223;53.654;10.014;2023-09-12T04:16:44;41.40;;;25.23;;
46507;SDS011;32223;53.654;10.014;2023-09-12T04:19:09;43.92;;;27.75;;
46507;SDS011;32223;53.654;10.014;2023-09-12T04:21:35;38.35;;;24.00;;
46507;SDS011;32223;53.654;10.014;2023-09-12T04:24:00;40.83;;;27.02;;
46507;SDS011;32223;53.654;10.014;2023-09-12T04:26:26;40.00;;;26.30;;
46507;SDS011;32223;53.654;10.014;2023-09-12T04:28:52;41.75;;;28.30;;
46507;SDS011;32223;53.654;10.014;2023-09-12T04:31:17;42.22;;;27.23;;
46507;SDS011;32223;53.654;10.014;2023-09-12T04:33:43;42.17;;;28.25;;
46507;SDS011;32223;53.654;10.014;2023-09-12T04:36:08;40.05;;;27.17;;
46507;SDS011;32223;53.654;10.014;2023-09-12T04:38:34;46.95;;;30.17;;
46507;SDS011;32223;53.654;10.014;2023-09-12T04:41:01;45.20;;;29.10;;
46507;SDS011;32223;53.654;10.014;2023-09-12T04:43:30;43.00;;;26.88;;
46507;SDS011;32223;53.654;10.014;2023-09-12T04:45:56;42.70;;;28.27;;
46507;SDS011;32223;53.654;10.014;2023-09-12T04:48:21;42.08;;;27.83;;
46507;SDS011;32223;53.654;10.014;2023-09-12T04:50:47;44.53;;;29.33;;
46507;SDS011;32223;53.654;10.014;2023-09-12T04:53:13;43.72;;;28.45;;
46507;SDS011;32223;53.654;10.014;2023-09-12T04:55:39;51.20;;;32.75;;
46507;SDS011;32223;53.654;10.014;2023-09-12T04:58:05;48.63;;;30.38;;
46507;SDS011;32223;53.654;10.014;2023-09-12T05:00:31;49.38;;;30.55;;
46507;SDS011;32223;53.654;10.014;2023-09-12T05:02:57;47.55;;;31.70;;
46507;SDS011;32223;53.654;10.014;2023-09-12T05:05:23;42.10;;;26.67;;
46507;SDS011;32223;53.654;10.014;2023-09-12T05:07:49;47.22;;;28.25;;
46507;SDS011;32223;53.654;10.014;2023-09-12T05:10:16;52.30;;;32.58;;
46507;SDS011;32223;53.654;10.014;2023-09-12T05:12:43;45.05;;;29.38;;
46507;SDS011;32223;53.654;10.014;2023-09-12T05:15:08;47.88;;;31.80;;
46507;SDS011;32223;53.654;10.014;2023-09-12T05:17:34;48.88;;;30.17;;
46507;SDS011;32223;53.654;10.014;2023-09-12T05:20:00;50.70;;;30.80;;
46507;SDS011;32223;53.654;10.014;2023-09-12T05:22:25;48.85;;;31.83;;
46507;SDS011;32223;53.654;10.014;2023-09-12T05:24:52;54.15;;;34.00;;
46507;SDS011;32223;53.654;10.014;2023-09-12T05:27:17;53.53;;;32.00;;
46507;SDS011;32223;53.654;10.014;2023-09-12T05:29:43;50.28;;;32.55;;
46507;SDS011;32223;53.654;10.014;2023-09-12T05:32:09;51.10;;;33.45;;
46507;SDS011;32223;53.654;10.014;2023-09-12T05:34:34;51.53;;;33.05;;
46507;SDS011;32223;53.654;10.014;2023-09-12T05:37:00;51.75;;;33.45;;
46507;SDS011;32223;53.654;10.014;2023-09-12T05:39:25;68.45;;;34.78;;
46507;SDS011;32223;53.654;10.014;2023-09-12T05:41:51;55.40;;;33.25;;
46507;SDS011;32223;53.654;10.014;2023-09-12T05:44:17;52.88;;;31.60;;
46507;SDS011;32223;53.654;10.014;2023-09-12T05:46:46;52.28;;;33.47;;
46507;SDS011;32223;53.654;10.014;2023-09-12T05:49:13;50.33;;;32.03;;
46507;SDS011;32223;53.654;10.014;2023-09-12T05:51:39;56.38;;;32.35;;
46507;SDS011;32223;53.654;10.014;2023-09-12T05:54:05;54.58;;;33.35;;
46507;SDS011;32223;53.654;10.014;2023-09-12T05:56:33;51.25;;;30.27;;
46507;SDS011;32223;53.654;10.014;2023-09-12T05:58:59;52.42;;;35.05;;
46507;SDS011;32223;53.654;10.014;2023-09-12T06:01:24;50.90;;;34.55;;
46507;SDS011;32223;53.654;10.014;2023-09-12T06:03:50;65.32;;;38.88;;
46507;SDS011;32223;53.654;10.014;2023-09-12T06:06:16;52.88;;;33.95;;
46507;SDS011;32223;53.654;10.014;2023-09-12T06:08:42;59.38;;;38.70;;
46507;SDS011;32223;53.654;10.014;2023-09-12T06:11:07;50.60;;;32.72;;
46507;SDS011;32223;53.654;10.014;2023-09-12T06:13:33;58.75;;;35.40;;
46507;SDS011;32223;53.654;10.014;2023-09-12T06:16:00;57.38;;;35.38;;
46507;SDS011;32223;53.654;10.014;2023-09-12T06:18:26;56.03;;;33.70;;
46507;SDS011;32223;53.654;10.014;2023-09-12T06:20:55;59.55;;;35.38;;
46507;SDS011;32223;53.654;10.014;2023-09-12T06:23:20;60.35;;;35.67;;
46507;SDS011;32223;53.654;10.014;2023-09-12T06:25:46;55.15;;;33.85;;
46507;SDS011;32223;53.654;10.014;2023-09-12T06:28:11;60.50;;;33.97;;
46507;SDS011;32223;53.654;10.014;2023-09-12T06:30:37;55.30;;;34.88;;
46507;SDS011;32223;53.654;10.014;2023-09-12T06:33:03;63.92;;;35.97;;
46507;SDS011;32223;53.654;10.014;2023-09-12T06:35:28;55.75;;;32.63;;
46507;SDS011;32223;53.654;10.014;2023-09-12T06:37:54;54.50;;;33.55;;
46507;SDS011;32223;53.654;10.014;2023-09-12T06:40:21;56.58;;;34.88;;
46507;SDS011;32223;53.654;10.014;2023-09-12T06:42:47;54.17;;;32.58;;
46507;SDS011;32223;53.654;10.014;2023-09-12T06:45:12;59.88;;;36.35;;
46507;SDS011;32223;53.654;10.014;2023-09-12T06:47:38;51.45;;;33.15;;
46507;SDS011;32223;53.654;10.014;2023-09-12T06:50:03;57.70;;;35.53;;
46507;SDS011;32223;53.654;10.014;2023-09-12T06:52:29;58.25;;;34.78;;
46507;SDS011;32223;53.654;10.014;2023-09-12T06:54:55;59.15;;;34.60;;
46507;SDS011;32223;53.654;10.014;2023-09-12T06:57:20;55.45;;;32.83;;
46507;SDS011;32223;53.654;10.014;2023-09-12T06:59:46;57.25;;;33.70;;
46507;SDS011;32223;53.654;10.014;2023-09-12T07:02:14;48.50;;;30.52;;
46507;SDS011;32223;53.654;10.014;2023-09-12T07:04:39;48.17;;;29.85;;
46507;SDS011;32223;53.654;10.014;2023-09-12T07:07:05;51.35;;;33.08;;
46507;SDS011;32223;53.654;10.014;2023-09-12T07:09:31;50.40;;;33.65;;
46507;SDS011;32223;53.654;10.014;2023-09-12T07:11:56;51.22;;;33.08;;
46507;SDS011;32223;53.654;10.014;2023-09-12T07:14:22;54.17;;;31.27;;
46507;SDS011;32223;53.654;10.014;2023-09-12T07:16:49;47.50;;;30.58;;
46507;SDS011;32223;53.654;10.014;2023-09-12T07:19:14;47.33;;;31.67;;
46507;SDS011;32223;53.654;10.014;2023-09-12T07:21:40;45.80;;;27.10;;
46507;SDS011;32223;53.654;10.014;2023-09-12T07:24:06;49.97;;;32.60;;
46507;SDS011;32223;53.654;10.014;2023-09-12T07:26:32;47.75;;;28.92;;
46507;SDS011;32223;53.654;10.014;2023-09-12T07:28:57;50.05;;;30.63;;
46507;SDS011;32223;53.654;10.014;2023-09-12T07:31:27;47.70;;;30.02;;
46507;SDS011;32223;53.654;10.014;2023-09-12T07:33:52;46.35;;;29.67;;
46507;SDS011;32223;53.654;10.014;2023-09-12T07:36:18;48.25;;;28.52;;
46507;SDS011;32223;53.654;10.014;2023-09-12T07:38:43;42.67;;;28.10;;
46507;SDS011;32223;53.654;10.014;2023-09-12T07:41:10;45.88;;;29.40;;
46507;SDS011;32223;53.654;10.014;2023-09-12T07:43:36;44.13;;;29.38;;
46507;SDS011;32223;53.654;10.014;2023-09-12T07:46:01;41.58;;;27.08;;
46507;SDS011;32223;53.654;10.014;2023-09-12T07:48:27;40.85;;;24.67;;
46507;SDS011;32223;53.654;10.014;2023-09-12T07:50:53;41.88;;;27.33;;
46507;SDS011;32223;53.654;10.014;2023-09-12T07:53:18;47.67;;;30.15;;
46507;SDS011;32223;53.654;10.014;2023-09-12T07:55:44;42.90;;;29.17;;
46507;SDS011;32223;53.654;10.014;2023-09-12T07:58:17;40.97;;;27.02;;
46507;SDS011;32223;53.654;10.014;2023-09-12T08:00:46;40.85;;;27.17;;
46507;SDS011;32223;53.654;10.014;2023-09-12T08:03:12;37.90;;;25.77;;
46507;SDS011;32223;53.654;10.014;2023-09-12T08:05:40;39.38;;;25.88;;
46507;SDS011;32223;53.654;10.014;2023-09-12T08:08:05;40.80;;;27.23;;
46507;SDS011;32223;53.654;10.014;2023-09-12T08:10:31;43.00;;;26.95;;
46507;SDS011;32223;53.654;10.014;2023-09-12T08:12:57;38.25;;;25.90;;
46507;SDS011;32223;53.654;10.014;2023-09-12T08:15:22;34.72;;;24.13;;
46507;SDS011;32223;53.654;10.014;2023-09-12T08:17:48;35.85;;;25.90;;
46507;SDS011;32223;53.654;10.014;2023-09-12T08:20:16;35.00;;;24.30;;
46507;SDS011;32223;53.654;10.014;2023-09-12T08:22:43;39.40;;;24.17;;
46507;SDS011;32223;53.654;10.014;2023-09-12T08:25:08;35.25;;;23.40;;
46507;SDS011;32223;53.654;10.014;2023-09-12T08:27:35;34.08;;;24.17;;
46507;SDS011;32223;53.654;10.014;2023-09-12T08:30:00;31.98;;;22.38;;
46507;SDS011;32223;53.654;10.014;2023-09-12T08:32:26;37.22;;;24.20;;
46507;SDS011;32223;53.654;10.014;2023-09-12T08:34:52;36.35;;;24.27;;
46507;SDS011;32223;53.654;10.014;2023-09-12T08:37:17;34.72;;;21.95;;
46507;SDS011;32223;53.654;10.014;2023-09-12T08:39:44;34.30;;;22.55;;
46507;SDS011;32223;53.654;10.014;2023-09-12T08:42:13;29.35;;;21.42;;
46507;SDS011;32223;53.654;10.014;2023-09-12T08:44:41;30.35;;;22.23;;
46507;SDS011;32223;53.654;10.014;2023-09-12T08:47:08;34.22;;;22.08;;
46507;SDS011;32223;53.654;10.014;2023-09-12T08:49:35;30.33;;;20.45;;
46507;SDS011;32223;53.654;10.014;2023-09-12T08:52:02;29.13;;;19.73;;
46507;SDS011;32223;53.654;10.014;2023-09-12T08:54:29;30.42;;;22.55;;
46507;SDS011;32223;53.654;10.014;2023-09-12T08:56:54;30.65;;;22.17;;
46507;SDS011;32223;53.654;10.014;2023-09-12T08:59:21;26.15;;;18.85;;
46507;SDS011;32223;53.654;10.014;2023-09-12T09:01:46;24.67;;;17.38;;
46507;SDS011;32223;53.654;10.014;2023-09-12T09:04:16;24.35;;;17.25;;
46507;SDS011;32223;53.654;10.014;2023-09-12T09:06:44;26.13;;;18.98;;
46507;SDS011;32223;53.654;10.014;2023-09-12T09:09:11;27.98;;;19.08;;
46507;SDS011;32223;53.654;10.014;2023-09-12T09:11:37;23.27;;;18.52;;
46507;SDS011;32223;53.654;10.014;2023-09-12T09:14:03;22.65;;;16.85;;
46507;SDS011;32223;53.654;10.014;2023-09-12T09:16:29;25.13;;;17.75;;
46507;SDS011;32223;53.654;10.014;2023-09-12T09:19:01;23.52;;;17.20;;
46507;SDS011;32223;53.654;10.014;2023-09-12T09:24:01;19.73;;;14.70;;
46507;SDS011;32223;53.654;10.014;2023-09-12T09:26:48;22.58;;;15.65;;
46507;SDS011;32223;53.654;10.014;2023-09-12T09:29:19;21.52;;;17.40;;
46507;SDS011;32223;53.654;10.014;2023-09-12T09:31:47;23.85;;;15.60;;
46507;SDS011;32223;53.654;10.014;2023-09-12T09:34:15;21.17;;;15.75;;
46507;SDS011;32223;53.654;10.014;2023-09-12T09:36:42;22.77;;;17.90;;
46507;SDS011;32223;53.654;10.014;2023-09-12T09:39:09;20.42;;;15.15;;
46507;SDS011;32223;53.654;10.014;2023-09-12T09:41:36;21.33;;;15.35;;
46507;SDS011;32223;53.654;10.014;2023-09-12T09:44:03;17.13;;;13.93;;
46507;SDS011;32223;53.654;10.014;2023-09-12T09:46:31;17.77;;;14.20;;
46507;SDS011;32223;53.654;10.014;2023-09-12T09:48:57;17.15;;;12.82;;
46507;SDS011;32223;53.654;10.014;2023-09-12T09:51:24;16.40;;;11.30;;
46507;SDS011;32223;53.654;10.014;2023-09-12T09:53:51;14.80;;;12.15;;
46507;SDS011;32223;53.654;10.014;2023-09-12T09:56:17;17.10;;;13.20;;
46507;SDS011;32223;53.654;10.014;2023-09-12T10:01:30;16.50;;;13.00;;
46507;SDS011;32223;53.654;10.014;2023-09-12T10:03:57;18.27;;;12.02;;
46507;SDS011;32223;53.654;10.014;2023-09-12T10:06:25;15.32;;;11.45;;
46507;SDS011;32223;53.654;10.014;2023-09-12T10:08:53;50.92;;;34.92;;
46507;SDS011;32223;53.654;10.014;2023-09-12T10:11:23;21.15;;;15.13;;
46507;SDS011;32223;53.654;10.014;2023-09-12T10:13:53;16.38;;;12.27;;
46507;SDS011;32223;53.654;10.014;2023-09-12T10:16:23;16.25;;;13.43;;
46507;SDS011;32223;53.654;10.014;2023-09-12T10:19:01;16.27;;;13.10;;
46507;SDS011;32223;53.654;10.014;2023-09-12T10:21:30;15.93;;;12.68;;
46507;SDS011;32223;53.654;10.014;2023-09-12T10:23:59;17.90;;;14.07;;
46507;SDS011;32223;53.654;10.014;2023-09-12T10:26:26;16.98;;;13.32;;
46507;SDS011;32223;53.654;10.014;2023-09-12T10:28:52;18.42;;;13.88;;
46507;SDS011;32223;53.654;10.014;2023-09-12T10:31:18;17.63;;;13.70;;
46507;SDS011;32223;53.654;10.014;2023-09-12T10:33:44;20.92;;;13.30;;
46507;SDS011;32223;53.654;10.014;2023-09-12T10:36:11;17.52;;;13.35;;
46507;SDS011;32223;53.654;10.014;2023-09-12T10:38:42;17.73;;;13.75;;
46507;SDS011;32223;53.654;10.014;2023-09-12T10:41:12;15.95;;;12.52;;
46507;SDS011;32223;53.654;10.014;2023-09-12T10:43:39;16.88;;;12.52;;
46507;SDS011;32223;53.654;10.014;2023-09-12T10:46:12;14.65;;;11.73;;
46507;SDS011;32223;53.654;10.014;2023-09-12T10:48:38;19.60;;;13.40;;
46507;SDS011;32223;53.654;10.014;2023-09-12T10:51:07;18.42;;;13.52;;
46507;SDS011;32223;53.654;10.014;2023-09-12T10:53:35;17.02;;;12.75;;
46507;SDS011;32223;53.654;10.014;2023-09-12T10:56:18;16.95;;;13.73;;
46507;SDS011;32223;53.654;10.014;2023-09-12T11:01:31;15.90;;;12.90;;
46507;SDS011;32223;53.654;10.014;2023-09-12T11:03:59;18.95;;;15.07;;
46507;SDS011;32223;53.654;10.014;2023-09-12T11:11:39;17.92;;;15.35;;
46507;SDS011;32223;53.654;10.014;2023-09-12T11:14:08;16.85;;;14.63;;
46507;SDS011;32223;53.654;10.014;2023-09-12T11:16:34;20.83;;;15.40;;
46507;SDS011;32223;53.654;10.014;2023-09-12T11:21:42;20.33;;;15.32;;
46507;SDS011;32223;53.654;10.014;2023-09-12T11:24:08;17.90;;;14.43;;
46507;SDS011;32223;53.654;10.014;2023-09-12T11:26:34;21.02;;;15.30;;
46507;SDS011;32223;53.654;10.014;2023-09-12T11:31:58;19.85;;;14.40;;
46507;SDS011;32223;53.654;10.014;2023-09-12T11:34:25;19.63;;;14.15;;
46507;SDS011;32223;53.654;10.014;2023-09-12T11:36:54;17.63;;;13.90;;
46507;SDS011;32223;53.654;10.014;2023-09-12T11:39:29;19.02;;;14.27;;
46507;SDS011;32223;53.654;10.014;2023-09-12T11:41:56;18.73;;;12.45;;
46507;SDS011;32223;53.654;10.014;2023-09-12T11:44:22;17.95;;;13.77;;
46507;SDS011;32223;53.654;10.014;2023-09-12T11:46:49;20.23;;;14.18;;
46507;SDS011;32223;53.654;10.014;2023-09-12T11:49:18;16.95;;;13.10;;
46507;SDS011;32223;53.654;10.014;2023-09-12T11:51:51;17.55;;;12.85;;
46507;SDS011;32223;53.654;10.014;2023-09-12T11:54:19;19.02;;;12.85;;
46507;SDS011;32223;53.654;10.014;2023-09-12T11:56:49;19.20;;;13.75;;
46507;SDS011;32223;53.654;10.014;2023-09-12T11:59:16;20.50;;;13.27;;
46507;SDS011;32223;53.654;10.014;2023-09-12T12:01:45;18.90;;;14.32;;
46507;SDS011;32223;53.654;10.014;2023-09-12T12:04:11;23.98;;;16.08;;
46507;SDS011;32223;53.654;10.014;2023-09-12T12:06:37;20.67;;;15.35;;
46507;SDS011;32223;53.654;10.014;2023-09-12T12:09:03;21.42;;;16.17;;
46507;SDS011;32223;53.654;10.014;2023-09-12T12:11:29;23.45;;;15.93;;
46507;SDS011;32223;53.654;10.014;2023-09-12T12:13:56;18.02;;;14.05;;
46507;SDS011;32223;53.654;10.014;2023-09-12T12:16:21;18.98;;;14.80;;
46507;SDS011;32223;53.654;10.014;2023-09-12T12:18:47;20.40;;;16.02;;
46507;SDS011;32223;53.654;10.014;2023-09-12T12:21:13;20.25;;;13.98;;
46507;SDS011;32223;53.654;10.014;2023-09-12T12:23:39;20.02;;;14.55;;
46507;SDS011;32223;53.654;10.014;2023-09-12T12:26:08;20.27;;;15.75;;
46507;SDS011;32223;53.654;10.014;2023-09-12T12:28:34;22.52;;;16.42;;
46507;SDS011;32223;53.654;10.014;2023-09-12T12:31:00;23.27;;;17.98;;
46507;SDS011;32223;53.654;10.014;2023-09-12T12:33:27;24.17;;;18.80;;
46507;SDS011;32223;53.654;10.014;2023-09-12T12:36:00;26.83;;;19.02;;
46507;SDS011;32223;53.654;10.014;2023-09-12T12:38:27;24.88;;;19.63;;
46507;SDS011;32223;53.654;10.014;2023-09-12T12:40:52;25.35;;;18.60;;
46507;SDS011;32223;53.654;10.014;2023-09-12T12:43:18;24.67;;;20.25;;
46507;SDS011;32223;53.654;10.014;2023-09-12T12:45:54;27.95;;;20.77;;
46507;SDS011;32223;53.654;10.014;2023-09-12T12:48:31;20.45;;;16.60;;
46507;SDS011;32223;53.654;10.014;2023-09-12T12:50:57;27.33;;;19.45;;
46507;SDS011;32223;53.654;10.014;2023-09-12T12:53:42;24.15;;;18.42;;
46507;SDS011;32223;53.654;10.014;2023-09-12T12:56:13;32.58;;;23.35;;
46507;SDS011;32223;53.654;10.014;2023-09-12T12:58:50;27.35;;;22.65;;
46507;SDS011;32223;53.654;10.014;2023-09-12T13:01:17;25.98;;;19.15;;
46507;SDS011;32223;53.654;10.014;2023-09-12T13:03:43;26.35;;;20.00;;
46507;SDS011;32223;53.654;10.014;2023-09-12T13:06:09;27.60;;;19.17;;
46507;SDS011;32223;53.654;10.014;2023-09-12T13:08:45;23.30;;;17.63;;
46507;SDS011;32223;53.654;10.014;2023-09-12T13:11:12;23.92;;;18.00;;
46507;SDS011;32223;53.654;10.014;2023-09-12T13:13:38;22.20;;;17.17;;
46507;SDS011;32223;53.654;10.014;2023-09-12T13:16:05;22.83;;;16.98;;
46507;SDS011;32223;53.654;10.014;2023-09-12T13:18:34;22.73;;;18.17;;
46507;SDS011;32223;53.654;10.014;2023-09-12T13:21:00;24.25;;;18.08;;
46507;SDS011;32223;53.654;10.014;2023-09-12T13:23:26;21.50;;;16.65;;
46507;SDS011;32223;53.654;10.014;2023-09-12T13:25:53;21.77;;;16.35;;
46507;SDS011;32223;53.654;10.014;2023-09-12T13:28:18;19.75;;;15.95;;
46507;SDS011;32223;53.654;10.014;2023-09-12T13:30:44;18.42;;;14.07;;
46507;SDS011;32223;53.654;10.014;2023-09-12T13:33:10;14.85;;;12.93;;
46507;SDS011;32223;53.654;10.014;2023-09-12T13:35:37;17.85;;;12.02;;
46507;SDS011;32223;53.654;10.014;2023-09-12T13:38:03;16.92;;;11.68;;
46507;SDS011;32223;53.654;10.014;2023-09-12T13:40:34;14.73;;;12.23;;
46507;SDS011;32223;53.654;10.014;2023-09-12T13:43:04;16.30;;;11.95;;
46507;SDS011;32223;53.654;10.014;2023-09-12T13:45:30;15.45;;;13.27;;
46507;SDS011;32223;53.654;10.014;2023-09-12T13:47:56;17.08;;;12.90;;
46507;SDS011;32223;53.654;10.014;2023-09-12T13:50:23;13.57;;;11.32;;
46507;SDS011;32223;53.654;10.014;2023-09-12T13:52:48;14.75;;;10.90;;
46507;SDS011;32223;53.654;10.014;2023-09-12T13:55:14;14.50;;;11.48;;
46507;SDS011;32223;53.654;10.014;2023-09-12T13:57:41;15.27;;;13.00;;
46507;SDS011;32223;53.654;10.014;2023-09-12T14:00:07;12.48;;;10.93;;
46507;SDS011;32223;53.654;10.014;2023-09-12T14:02:33;14.02;;;11.65;;
46507;SDS011;32223;53.654;10.014;2023-09-12T14:04:59;17.05;;;12.88;;
46507;SDS011;32223;53.654;10.014;2023-09-12T14:07:25;14.98;;;11.93;;
46507;SDS011;32223;53.654;10.014;2023-09-12T14:09:51;15.98;;;12.38;;
46507;SDS011;32223;53.654;10.014;2023-09-12T14:12:20;14.45;;;12.07;;
46507;SDS011;32223;53.654;10.014;2023-09-12T14:14:49;15.00;;;13.02;;
46507;SDS011;32223;53.654;10.014;2023-09-12T14:17:15;14.93;;;11.70;;
46507;SDS011;32223;53.654;10.014;2023-09-12T14:19:40;15.48;;;13.07;;
46507;SDS011;32223;53.654;10.014;2023-09-12T14:22:06;16.13;;;13.93;;
46507;SDS011;32223;53.654;10.014;2023-09-12T14:24:32;17.00;;;13.50;;
46507;SDS011;32223;53.654;10.014;2023-09-12T14:26:57;15.90;;;13.10;;
46507;SDS011;32223;53.654;10.014;2023-09-12T14:29:23;16.10;;;12.73;;
46507;SDS011;32223;53.654;10.014;2023-09-12T14:31:51;17.02;;;13.50;;
46507;SDS011;32223;53.654;10.014;2023-09-12T14:34:22;15.75;;;12.93;;